• Join FlightAware (Why Join?)
  • Login
  • US Flag 
08:27PM EDT


 

Airport Tracker/Info


-or-


 

Live Flight TrackerFlight Track Log ✈ EJA930 ✈ 27-Jun-2013 ✈ KASE - KBFI

Flight Track Log - Related Links

Times and Time Zones

All times are in EDT time to prevent confusion due to time zone crossing. See the EJA930 flight status page for this flight to view local times or setup timezone preferences in your user account.

Time Position Orientation Groundspeed Altitude Reporting Facility
EDT Latitude Longitude Course Direction KTS MPH feet Rate Location/Type
02:13PM 39.2414 -106.8778 327° Northwest 171 197 43,000  Level Denver Center
02:14PM 39.2861 -106.9158 327° Northwest 245 282 11,000 -14,640 Descending Denver Center
02:15PM 39.2853 -107.0253 269° West 322 371 12,800 2,220 Climbing Denver Center
02:16PM 39.3533 -107.1206 313° West 372 428 15,700 2,520 Climbing Denver Center
02:17PM 39.4397 -107.2164 319° Northwest 387 445 18,100 2,280 Climbing Denver Center
02:18PM 39.5331 -107.3217 319° Northwest 396 456 20,500 1,740 Climbing Denver Center
02:19PM 39.6156 -107.4142 319° Northwest 404 465 21,700 1,200 Climbing Denver Center
02:20PM 39.7147 -107.5239 320° Northwest 417 480 23,100 1,200 Climbing Denver Center
02:21PM 39.7997 -107.6194 319° Northwest 423 487 24,200 1,260 Climbing Denver Center
02:22PM 39.9011 -107.7347 319° Northwest 432 497 25,800 1,260 Climbing Denver Center
02:23PM 39.9889 -107.8344 319° Northwest 437 503 26,900 1,080 Climbing Denver Center
02:24PM 40.0992 -107.9478 322° Northwest 455 524 28,100 1,140 Climbing Denver Center
02:25PM 40.1847 -108.0600 315° West 458 527 29,300 1,200 Climbing Denver Center
02:26PM 40.2758 -108.2056 309° West 463 533 30,600 1,320 Climbing Denver Center
02:27PM 40.3550 -108.3322 309° West 470 541 32,100 1,740 Climbing Denver Center
02:28PM 40.4456 -108.4786 309° West 465 535 34,300 1,920 Climbing Denver Center
02:29PM 40.5219 -108.6019 309° West 459 528 36,100 1,980 Climbing Denver Center
02:30PM 40.6050 -108.7383 309° West 457 526 38,300 2,040 Climbing Salt Lake Center
02:31PM 40.6864 -108.8708 309° West 454 522 40,400 1,560 Climbing Denver Center
02:32PM 40.7686 -109.0061 309° West 450 518 41,700 1,140 Climbing Denver Center
02:33PM 40.8581 -109.1525 309° West 457 526 42,800 600 Climbing Denver Center
02:34PM 40.9339 -109.2789 308° West 456 525 43,000 60 Climbing Denver Center
02:35PM 41.0097 -109.4056 308° West 456 525 43,000  Level Denver Center
02:36PM 41.0981 -109.5508 309° West 450 518 43,000  Level Denver Center
02:37PM 41.1728 -109.6758 308° West 452 520 43,000  Level Salt Lake Center
02:38PM 41.2469 -109.8006 308° West 448 516 43,000  Level Salt Lake Center
02:39PM 41.3333 -109.9461 308° West 448 516 43,000  Level Salt Lake Center
02:40PM 41.4078 -110.0711 308° West 448 516 43,000  Level Salt Lake Center
02:41PM 41.4936 -110.2161 308° West 446 513 43,000  Level Salt Lake Center
02:43PM 41.5658 -110.3414 308° West 444 511 43,000  Level Salt Lake Center
02:44PM 41.6394 -110.4667 308° West 447 514 43,000  Level Salt Lake Center
02:45PM 41.7258 -110.6139 308° West 450 518 43,000  Level Salt Lake Center
02:46PM 41.7992 -110.7397 308° West 448 516 43,000  Level Salt Lake Center
02:47PM 41.8842 -110.8886 308° West 450 518 43,000  Level Salt Lake Center
02:48PM 41.9650 -111.0300 308° West 448 516 43,000  Level Salt Lake Center
02:49PM 42.0408 -111.1617 308° West 449 517 43,000  Level Salt Lake Center
02:50PM 42.1147 -111.2944 307° West 447 514 43,000  Level Salt Lake Center
02:51PM 42.1897 -111.4264 308° West 446 513 43,000  Level Salt Lake Center
02:52PM 42.2639 -111.5586 307° West 445 512 43,000  Level Salt Lake Center
02:53PM 42.3539 -111.7169 308° West 446 513 43,000  Level Salt Lake Center
02:54PM 42.4275 -111.8494 307° West 444 511 43,000  Level Salt Lake Center
02:55PM 42.5014 -111.9842 307° West 447 514 43,000  Level Salt Lake Center
02:56PM 42.5758 -112.1169 307° West 445 512 43,000  Level Salt Lake Center
02:57PM 42.6506 -112.2517 307° West 447 514 43,000  Level Salt Lake Center
02:58PM 42.7275 -112.3922 307° West 445 512 43,000  Level Salt Lake Center
02:59PM 42.8106 -112.5456 306° West 447 514 43,000  Level Salt Lake Center
03:00PM 42.8831 -112.6764 307° West 450 518 43,000  Level Salt Lake Center
03:01PM 42.9672 -112.8333 306° West 457 526 43,000  Level Salt Lake Center
03:02PM 43.0400 -112.9678 307° West 460 529 43,000  Level Salt Lake Center
03:03PM 43.1250 -113.1272 306° West 461 531 43,000  Level Salt Lake Center
03:04PM 43.1992 -113.2672 306° West 470 541 43,000  Level Salt Lake Center
03:05PM 43.2847 -113.4294 306° West 470 541 43,000  Level Salt Lake Center
03:06PM 43.3578 -113.5669 306° West 465 535 43,000  Level Salt Lake Center
03:07PM 43.4314 -113.7056 306° West 468 539 43,000  Level Salt Lake Center
03:08PM 43.5158 -113.8711 305° West 474 545 43,000  Level Salt Lake Center
03:09PM 43.5914 -114.0167 306° West 464 534 43,000  Level Salt Lake Center
03:10PM 43.6636 -114.1564 306° West 467 537 43,000  Level Salt Lake Center
03:11PM 43.7469 -114.3183 306° West 463 533 43,000  Level Salt Lake Center
03:12PM 43.8167 -114.4567 305° West 459 528 43,000  Level Salt Lake Center
03:14PM 43.8992 -114.6186 305° West 460 529 43,000  Level Salt Lake Center
03:15PM 43.9700 -114.7575 305° West 460 529 43,000  Level Salt Lake Center
03:16PM 44.0528 -114.9181 306° West 459 528 43,000  Level Salt Lake Center
03:17PM 44.1203 -115.0583 304° West 458 527 43,000  Level Salt Lake Center
03:18PM 44.2014 -115.2203 305° West 455 524 43,000  Level Salt Lake Center
03:19PM 44.2708 -115.3581 305° West 455 524 43,000  Level Salt Lake Center
03:20PM 44.3508 -115.5197 305° West 455 524 43,000  Level Salt Lake Center
03:21PM 44.4189 -115.6592 304° West 454 522 43,000  Level Salt Lake Center
03:22PM 44.4983 -115.8217 304° West 455 524 43,000  Level Salt Lake Center
03:23PM 44.5661 -115.9600 305° West 456 525 43,000  Level Salt Lake Center
03:24PM 44.6431 -116.1228 304° West 456 525 43,000  Level Salt Lake Center
03:25PM 44.7094 -116.2614 304° West 451 519 43,000  Level Salt Lake Center
03:26PM 44.7861 -116.4247 304° West 449 517 43,000  Level Salt Lake Center
03:27PM 44.8525 -116.5653 304° West 451 519 43,000  Level Salt Lake Center
03:28PM 44.9300 -116.7289 304° West 449 517 43,000  Level Salt Lake Center
03:29PM 44.9967 -116.8700 304° West 452 520 43,000  Level Salt Lake Center
03:30PM 45.0736 -117.0369 303° West 452 520 43,000  Level Seattle Center
03:31PM 45.1411 -117.1800 304° West 455 524 43,000  Level Seattle Center
03:32PM 45.2172 -117.3475 303° West 453 521 43,000  Level Seattle Center
03:33PM 45.2850 -117.4911 304° West 455 524 43,000  Level Seattle Center
03:34PM 45.3539 -117.6428 303° West 458 527 43,000  Level Seattle Center
03:35PM 45.4222 -117.7931 303° West 455 524 43,000  Level Seattle Center
03:36PM 45.4897 -117.9428 303° West 452 520 43,000  Level Seattle Center
03:37PM 45.5569 -118.0919 303° West 450 518 43,000  Level Seattle Center
03:38PM 45.6242 -118.2417 303° West 450 518 43,000  Level Seattle Center
03:39PM 45.6950 -118.4011 302° West 448 516 43,000  Level Seattle Center
03:40PM 45.7692 -118.5714 302° West 448 516 43,000  Level Seattle Center
03:41PM 45.8358 -118.7211 303° West 448 516 43,000  Level Seattle Center
03:42PM 45.9014 -118.8714 302° West 449 517 43,000  Level Seattle Center
03:43PM 45.9667 -119.0219 302° West 447 514 43,000  Level Seattle Center
03:44PM 46.0336 -119.1756 302° West 446 513 43,000  Level Seattle Center
03:45PM 46.0967 -119.3242 302° West 448 516 43,000  Level Seattle Center
03:46PM 46.1608 -119.4742 302° West 445 512 43,000  Level Seattle Center
03:47PM 46.2394 -119.6575 302° West 448 516 43,000  Level Seattle Center
03:48PM 46.3033 -119.8097 301° West 449 517 43,000  Level Seattle Center
03:50PM 46.3694 -119.9639 302° West 452 520 43,000  Level Seattle Center
03:51PM 46.4333 -120.1194 301° West 451 519 43,000 -900 Level Seattle Center
03:52PM 46.4992 -120.2772 301° West 457 526 41,200 -1,920 Descending Seattle Center
03:53PM 46.5667 -120.4394 301° West 467 537 39,200 -2,100 Descending Seattle Center
03:54PM 46.6397 -120.5956 304° West 468 539 37,000 -2,460 Descending Seattle Center
03:55PM 46.7147 -120.7519 305° West 473 544 34,200 -2,760 Descending Seattle Center
03:56PM 46.7911 -120.9136 305° West 486 559 31,400 -3,000 Descending Seattle Center
03:57PM 46.8836 -121.1103 305° West 491 565 28,200 -2,880 Descending Seattle Center
03:58PM 46.9603 -121.2725 305° West 488 562 25,600 -2,700 Descending Seattle Center
03:58PM 47.0153 -121.3872 305° West 478 550 23,700 -2,700 Descending Seattle Center
03:59PM 47.0644 -121.4967 303° West 459 528 21,900 -2,340 Descending Seattle Center
04:00PM 47.1000 -121.5742 304° West 461 531 20,500 -2,580 Descending Seattle Center
04:01PM 47.1825 -121.7542 304° West 458 527 17,600 -3,000 Descending Seattle Center
04:02PM 47.2486 -121.8975 304° West 418 481 14,500 -3,240 Descending Seattle Center
04:03PM 47.3108 -122.0328 304° West 399 459 11,100 -1,740 Descending Seattle Center
04:04PM 47.3631 -122.1489 304° West 303 349 11,000 -60 Descending Seattle Center
04:05PM 47.4003 -122.2578 297° West 297 342 11,000 -360 Level Seattle Center
04:06PM 47.4344 -122.3669 295° West 289 333 10,300 -1,020 Descending Seattle Center
04:07PM 47.4683 -122.4719 296° West 283 326 9,000 -1,620 Descending Seattle Center
04:08PM 47.5528 -122.5475 329° Northwest 274 315 6,600 -2,220 Descending Seattle Center
04:09PM 47.5989 -122.5772 337° Northwest 269 310 4,600 -1,860 Descending Seattle Center
04:10PM 47.6661 -122.6047 345° North 238 274 3,400 -1,200 Descending Seattle Center
04:11PM 47.7022 -122.5311 54° Northeast 219 252 2,200 -600 Descending Seattle Center
04:12PM 47.6972 -122.4558 96° East 200 230 2,200  Level Seattle Center
04:13PM 47.6547 -122.4094 144° Southeast 198 228 2,200 -300 Level Seattle Center
04:14PM 47.6114 -122.3725 150° Southeast 168 193 1,700 -660 Descending Seattle Center
04:15PM 47.5742 -122.3411 150° Southeast 156 180 900 -840 Descending Seattle Center
04:16PM 47.5406 -122.3117 149° Southeast 143 165 100 -840 Descending Seattle Center